Time;durP1;ratioP1;P1;durP2;ratioP2;P2;SDS_P1;SDS_P2;PMS_P1;PMS_P2;Temp;Humidity;BMP_temperature;BMP_pressure;BME280_temperature;BME280_humidity;BME280_pressure;Samples;Min_cycle;Max_cycle;Signal;HPM_P1;HPM_P2
2023/09/05 00:00:10;;;;;;;6.93;4.22;;;16.60;99.90;;;;;;5053060;28;20082;-74
2023/09/05 00:02:39;;;;;;;6.75;4.28;;;16.60;99.90;;;;;;5050128;28;20033;-74
2023/09/05 00:05:07;;;;;;;8.25;4.40;;;16.60;99.90;;;;;;5037841;28;20036;-75
2023/09/05 00:07:35;;;;;;;5.72;4.25;;;16.60;99.90;;;;;;5051761;28;20081;-75
2023/09/05 00:10:04;;;;;;;7.78;4.75;;;16.60;99.90;;;;;;5038021;28;20043;-75
2023/09/05 00:12:30;;;;;;;7.80;4.30;;;16.60;99.90;;;;;;5068013;28;20043;-75
2023/09/05 00:14:56;;;;;;;6.72;4.50;;;16.60;99.90;;;;;;5053091;28;20048;-75
2023/09/05 00:17:22;;;;;;;6.72;4.20;;;16.60;99.90;;;;;;5053286;28;20164;-75
2023/09/05 00:19:49;;;;;;;7.68;4.25;;;16.60;99.90;;;;;;5048650;28;20036;-77
2023/09/05 00:22:15;;;;;;;7.10;4.85;;;16.50;99.90;;;;;;5063929;28;20062;-75
2023/09/05 00:24:42;;;;;;;6.28;4.07;;;16.50;99.90;;;;;;5053078;28;20040;-75
2023/09/05 00:27:11;;;;;;;9.52;5.30;;;16.50;99.90;;;;;;5050206;28;20055;-75
2023/09/05 00:29:38;;;;;;;7.10;4.47;;;16.50;99.90;;;;;;5049712;28;20111;-75
2023/09/05 00:32:04;;;;;;;7.60;4.50;;;16.50;99.90;;;;;;5044562;28;20032;-75
2023/09/05 00:34:32;;;;;;;7.35;4.68;;;16.50;99.90;;;;;;5052952;28;20044;-75
2023/09/05 00:37:00;;;;;;;6.50;4.60;;;16.50;99.90;;;;;;5052697;28;20062;-75
2023/09/05 00:39:27;;;;;;;9.82;4.72;;;16.50;99.90;;;;;;5051722;28;20044;-74
2023/09/05 00:41:54;;;;;;;7.70;4.95;;;16.50;99.90;;;;;;5053075;28;20047;-75
2023/09/05 00:44:20;;;;;;;6.20;4.53;;;16.50;99.90;;;;;;5052460;28;20503;-75
2023/09/05 00:46:46;;;;;;;14.00;5.22;;;16.50;99.90;;;;;;5050763;28;20103;-76
2023/09/05 00:49:15;;;;;;;8.57;5.20;;;16.40;99.90;;;;;;5050079;28;20140;-75
2023/09/05 00:51:42;;;;;;;6.82;4.55;;;16.40;99.90;;;;;;5065573;28;20071;-74
2023/09/05 00:54:10;;;;;;;8.57;4.53;;;16.40;99.90;;;;;;5048827;28;20119;-75
2023/09/05 00:56:36;;;;;;;7.10;4.55;;;16.40;99.90;;;;;;5052790;28;20491;-75
2023/09/05 00:59:06;;;;;;;7.80;4.60;;;16.40;99.90;;;;;;5035770;28;20040;-75
2023/09/05 01:01:31;;;;;;;7.10;4.82;;;16.40;99.90;;;;;;5052588;28;20036;-75
2023/09/05 01:03:59;;;;;;;7.60;5.18;;;16.30;99.90;;;;;;5045406;28;20094;-74
2023/09/05 01:06:56;;;;;;;6.28;5.07;;;16.30;99.90;;;;;;5046516;28;20067;-75
2023/09/05 01:10:11;;;;;;;8.05;5.00;;;16.40;99.90;;;;;;5050652;28;20496;-75
2023/09/05 01:12:37;;;;;;;8.35;4.97;;;16.30;99.90;;;;;;4969458;28;20491;-74
2023/09/05 01:15:04;;;;;;;8.70;4.75;;;16.30;99.90;;;;;;4953299;28;20054;-75
2023/09/05 01:17:30;;;;;;;7.38;4.57;;;16.30;99.90;;;;;;5015893;28;20504;-75
2023/09/05 01:19:57;;;;;;;8.45;5.20;;;16.30;99.90;;;;;;5045999;28;20040;-75
2023/09/05 01:22:52;;;;;;;7.72;4.93;;;16.30;99.90;;;;;;5045630;28;20547;-76
2023/09/05 01:25:19;;;;;;;7.57;5.38;;;16.30;99.90;;;;;;5036381;28;20045;-76
2023/09/05 01:27:48;;;;;;;7.85;5.20;;;16.20;99.90;;;;;;5051903;28;20040;-77
2023/09/05 01:30:14;;;;;;;9.57;5.13;;;16.20;99.90;;;;;;5052457;28;20044;-77
2023/09/05 01:32:40;;;;;;;10.07;5.45;;;16.20;99.90;;;;;;5070493;28;20079;-76
2023/09/05 01:35:05;;;;;;;8.60;5.20;;;16.20;99.90;;;;;;5070242;28;20040;-77
2023/09/05 01:37:31;;;;;;;7.70;5.05;;;16.20;99.90;;;;;;5052244;28;20041;-77
2023/09/05 01:39:56;;;;;;;8.68;5.47;;;16.20;99.90;;;;;;5053229;28;20055;-77
2023/09/05 01:42:22;;;;;;;9.02;5.22;;;16.20;99.90;;;;;;5074208;28;20063;-76
2023/09/05 01:44:48;;;;;;;9.77;5.70;;;16.20;99.90;;;;;;5055778;28;20090;-77
2023/09/05 01:47:13;;;;;;;8.52;5.20;;;16.10;99.90;;;;;;5053055;28;20048;-77
2023/09/05 01:49:39;;;;;;;8.60;5.60;;;16.10;99.90;;;;;;5068503;28;20070;-77
2023/09/05 01:55:04;;;;;;;8.23;5.35;;;16.10;99.90;;;;;;5688621;22;20092;-77
2023/09/05 01:57:30;;;;;;;9.10;5.45;;;16.10;99.90;;;;;;5007059;28;20073;-76
2023/09/05 01:59:56;;;;;;;9.02;5.30;;;16.00;99.90;;;;;;5015512;28;20060;-76
2023/09/05 02:02:21;;;;;;;8.38;5.72;;;16.00;99.90;;;;;;5007804;28;20033;-76
2023/09/05 02:04:47;;;;;;;6.63;5.20;;;16.00;99.90;;;;;;5015174;28;20047;-75
2023/09/05 02:07:13;;;;;;;7.50;5.38;;;15.90;99.90;;;;;;5016106;28;20508;-76
2023/09/05 02:09:38;;;;;;;8.02;5.10;;;16.00;99.90;;;;;;5015693;28;20091;-76
2023/09/05 02:12:04;;;;;;;8.60;5.03;;;16.00;99.90;;;;;;5006700;28;20073;-75
2023/09/05 02:14:29;;;;;;;11.63;5.70;;;15.90;99.90;;;;;;5012546;28;20041;-76
2023/09/05 02:16:55;;;;;;;7.90;5.80;;;15.90;99.90;;;;;;5011553;28;20041;-75
2023/09/05 02:19:23;;;;;;;8.13;5.63;;;15.80;99.90;;;;;;5009688;28;20049;-75
2023/09/05 02:21:49;;;;;;;7.85;5.55;;;15.80;99.90;;;;;;5015237;28;20057;-76
2023/09/05 02:24:15;;;;;;;10.95;5.78;;;15.80;99.90;;;;;;5015050;28;20045;-76
2023/09/05 02:26:40;;;;;;;8.48;6.40;;;15.80;99.90;;;;;;5014662;28;20037;-76
2023/09/05 02:29:06;;;;;;;8.73;6.07;;;15.80;99.90;;;;;;5024025;22;20042;-75
2023/09/05 02:31:31;;;;;;;8.50;6.05;;;15.80;99.90;;;;;;4971472;28;20087;-75
2023/09/05 02:33:57;;;;;;;9.32;6.03;;;15.80;99.90;;;;;;4965866;28;20058;-75
2023/09/05 02:36:23;;;;;;;15.63;6.30;;;15.80;99.90;;;;;;4947959;28;20074;-75
2023/09/05 02:38:51;;;;;;;8.70;5.97;;;15.80;99.90;;;;;;4964249;28;20062;-75
2023/09/05 02:41:17;;;;;;;9.27;6.45;;;15.80;99.90;;;;;;4974326;28;20529;-75
2023/09/05 02:43:43;;;;;;;11.02;7.03;;;15.70;99.90;;;;;;4963647;28;20031;-75
2023/09/05 02:46:12;;;;;;;9.50;6.20;;;15.80;99.90;;;;;;4974954;28;20043;-75
2023/09/05 02:48:39;;;;;;;9.05;6.30;;;15.80;99.90;;;;;;4968921;28;20391;-75
2023/09/05 02:51:10;;;;;;;9.40;6.65;;;15.80;99.90;;;;;;4966705;28;20094;-75
2023/09/05 02:53:37;;;;;;;11.73;6.93;;;15.70;99.90;;;;;;4976757;28;20046;-74
2023/09/05 02:56:03;;;;;;;9.40;6.88;;;15.70;99.90;;;;;;4959902;28;20129;-75
2023/09/05 02:58:30;;;;;;;10.43;6.40;;;15.70;99.90;;;;;;4968088;28;20130;-75
2023/09/05 03:01:11;;;;;;;9.63;6.63;;;15.80;99.90;;;;;;4941024;28;20502;-74
2023/09/05 03:03:42;;;;;;;9.43;7.20;;;15.80;99.90;;;;;;4962996;28;20043;-75
2023/09/05 03:06:13;;;;;;;11.52;7.32;;;15.70;99.90;;;;;;4967440;28;20052;-75
2023/09/05 03:08:41;;;;;;;16.60;7.18;;;15.70;99.90;;;;;;4972144;28;20290;-74
2023/09/05 03:11:10;;;;;;;9.60;6.95;;;15.70;99.90;;;;;;4969927;28;20038;-75
2023/09/05 03:13:35;;;;;;;9.68;7.05;;;15.70;99.90;;;;;;4963074;28;20487;-75
2023/09/05 03:16:01;;;;;;;18.20;7.57;;;15.70;99.90;;;;;;4972215;28;20039;-75
2023/09/05 03:18:27;;;;;;;10.73;7.70;;;15.70;99.90;;;;;;4948488;28;20038;-75
2023/09/05 03:20:52;;;;;;;10.13;7.22;;;15.70;99.90;;;;;;4972407;28;20454;-75
2023/09/05 03:23:18;;;;;;;9.68;6.80;;;15.70;99.90;;;;;;4973061;28;20125;-75
2023/09/05 03:25:44;;;;;;;11.93;7.18;;;15.70;99.90;;;;;;4973416;28;20039;-75
2023/09/05 03:28:12;;;;;;;9.60;7.20;;;15.70;99.90;;;;;;4976273;28;20465;-75
2023/09/05 03:30:40;;;;;;;9.40;7.18;;;15.70;99.90;;;;;;4963080;28;20077;-75
2023/09/05 03:33:06;;;;;;;10.00;7.30;;;15.60;99.90;;;;;;4957766;28;20571;-75
2023/09/05 03:35:33;;;;;;;11.57;7.63;;;15.60;99.90;;;;;;4981358;28;20060;-75
2023/09/05 03:37:58;;;;;;;10.52;6.93;;;15.80;99.90;;;;;;4973337;28;20093;-75
2023/09/05 03:40:24;;;;;;;11.68;6.95;;;15.60;99.90;;;;;;4960154;28;20034;-75
2023/09/05 03:42:50;;;;;;;9.55;6.95;;;15.60;99.90;;;;;;4969147;28;20126;-75
2023/09/05 03:45:16;;;;;;;10.30;7.28;;;15.60;99.90;;;;;;4968219;28;20074;-75
2023/09/05 03:47:43;;;;;;;9.70;7.63;;;15.50;99.90;;;;;;4970092;28;20039;-75
2023/09/05 03:50:09;;;;;;;10.25;7.82;;;15.60;99.90;;;;;;4971738;28;20038;-75
2023/09/05 03:52:35;;;;;;;11.82;7.35;;;15.50;99.90;;;;;;4959934;28;20070;-75
2023/09/05 03:55:05;;;;;;;9.57;7.30;;;15.50;99.90;;;;;;4962755;28;20129;-77
2023/09/05 03:57:30;;;;;;;11.95;7.57;;;15.50;99.90;;;;;;4974921;28;20050;-77
2023/09/05 03:59:57;;;;;;;10.48;8.13;;;15.50;99.90;;;;;;4963271;28;20499;-77
2023/09/05 04:02:22;;;;;;;10.45;7.72;;;15.50;99.90;;;;;;4966840;28;20561;-77
2023/09/05 04:04:48;;;;;;;11.43;7.47;;;15.50;99.90;;;;;;4970893;28;20173;-77
2023/09/05 04:07:17;;;;;;;10.27;7.65;;;15.50;99.90;;;;;;4956470;28;20039;-77
2023/09/05 04:09:47;;;;;;;14.80;8.02;;;15.40;99.90;;;;;;4933968;28;20045;-77
2023/09/05 04:12:12;;;;;;;10.38;7.10;;;15.40;99.90;;;;;;4955537;28;20070;-77
2023/09/05 04:14:42;;;;;;;11.90;7.95;;;15.50;99.90;;;;;;4962427;28;20092;-77
2023/09/05 04:17:08;;;;;;;11.13;7.22;;;15.60;99.90;;;;;;4955626;28;20051;-77
2023/09/05 04:19:37;;;;;;;10.23;7.53;;;15.40;99.90;;;;;;4955363;28;20053;-77
2023/09/05 04:22:04;;;;;;;12.35;8.20;;;15.40;99.90;;;;;;4978101;28;20460;-77
2023/09/05 04:24:31;;;;;;;10.63;8.32;;;15.40;99.90;;;;;;4940643;28;20121;-77
2023/09/05 04:26:59;;;;;;;9.63;7.82;;;15.40;99.90;;;;;;4967123;28;20443;-77
2023/09/05 04:29:25;;;;;;;11.77;7.88;;;15.40;99.90;;;;;;4967821;28;20046;-77
2023/09/05 04:31:54;;;;;;;9.60;7.57;;;15.40;99.90;;;;;;4970341;28;20549;-77
2023/09/05 04:34:29;;;;;;;11.18;8.13;;;15.50;99.90;;;;;;4962934;28;20053;-77
2023/09/05 04:36:58;;;;;;;12.98;8.20;;;15.40;99.90;;;;;;4961180;28;20134;-77
2023/09/05 04:39:27;;;;;;;10.15;8.15;;;15.30;99.90;;;;;;4958448;28;20057;-77
2023/09/05 04:41:53;;;;;;;11.55;8.48;;;15.30;99.90;;;;;;4972425;28;20420;-77
2023/09/05 04:44:19;;;;;;;10.32;7.78;;;15.30;99.90;;;;;;4960869;28;20043;-77
2023/09/05 04:46:45;;;;;;;11.52;8.30;;;15.30;99.90;;;;;;4953159;28;20046;-76
2023/09/05 04:49:11;;;;;;;9.80;7.80;;;15.30;99.90;;;;;;4965452;28;20053;-77
2023/09/05 04:51:37;;;;;;;11.50;8.55;;;15.30;99.90;;;;;;4960269;28;20038;-77
2023/09/05 04:54:05;;;;;;;10.43;8.50;;;15.30;99.90;;;;;;4957468;28;20054;-77
2023/09/05 04:56:30;;;;;;;10.23;8.45;;;15.30;99.90;;;;;;4977435;28;20055;-77
2023/09/05 04:58:57;;;;;;;15.30;8.68;;;15.30;99.90;;;;;;4960451;28;20048;-76
2023/09/05 05:01:27;;;;;;;12.85;8.45;;;15.30;99.90;;;;;;4953556;28;20039;-78
2023/09/05 05:04:00;;;;;;;11.55;8.98;;;15.30;99.90;;;;;;4958008;28;20117;-78
2023/09/05 05:06:28;;;;;;;11.75;8.52;;;15.90;99.90;;;;;;4955924;28;20043;-77
2023/09/05 05:08:54;;;;;;;11.40;8.80;;;15.30;99.90;;;;;;4957723;28;20050;-78
2023/09/05 05:11:20;;;;;;;11.07;8.10;;;15.30;99.90;;;;;;4947435;28;20043;-77
2023/09/05 05:13:46;;;;;;;10.70;8.18;;;15.30;99.90;;;;;;4957726;28;20034;-77
2023/09/05 05:16:11;;;;;;;13.50;8.82;;;15.30;99.90;;;;;;4965210;28;20046;-77
2023/09/05 05:18:37;;;;;;;11.00;8.75;;;15.40;99.90;;;;;;4970695;28;20046;-77
2023/09/05 05:21:04;;;;;;;11.73;9.48;;;15.30;99.90;;;;;;4975765;28;20134;-76
2023/09/05 05:23:31;;;;;;;10.88;8.27;;;15.30;99.90;;;;;;4951964;28;20487;-77
2023/09/05 05:25:59;;;;;;;13.68;8.52;;;15.30;99.90;;;;;;4978558;28;20039;-77
2023/09/05 05:28:24;;;;;;;11.68;8.70;;;15.30;99.90;;;;;;4970082;28;20054;-76
2023/09/05 05:30:50;;;;;;;14.48;9.05;;;15.50;99.90;;;;;;4943529;28;20031;-77
2023/09/05 05:33:15;;;;;;;11.15;8.77;;;15.30;99.90;;;;;;4953562;28;20089;-77
2023/09/05 05:35:41;;;;;;;13.48;8.50;;;15.30;99.90;;;;;;4972953;28;20631;-77
2023/09/05 05:38:07;;;;;;;13.85;9.38;;;15.30;99.90;;;;;;4973740;28;20054;-77
2023/09/05 05:40:32;;;;;;;12.95;8.95;;;15.30;99.90;;;;;;4942425;28;20077;-77
2023/09/05 05:43:12;;;;;;;12.90;9.20;;;15.40;99.90;;;;;;4975619;28;20046;-77
2023/09/05 05:45:38;;;;;;;13.68;8.50;;;15.30;99.90;;;;;;4975525;28;20118;-77
2023/09/05 05:48:07;;;;;;;14.27;8.75;;;15.30;99.90;;;;;;4968229;28;20143;-77
2023/09/05 05:50:37;;;;;;;15.75;8.65;;;15.30;99.90;;;;;;4975045;28;20038;-77
2023/09/05 05:53:03;;;;;;;10.52;8.00;;;15.40;99.90;;;;;;4973577;28;20042;-77
2023/09/05 05:55:29;;;;;;;12.48;8.60;;;15.30;99.90;;;;;;4972685;28;20038;-77
2023/09/05 05:57:55;;;;;;;11.25;8.63;;;15.40;99.90;;;;;;4961952;28;20122;-77
2023/09/05 06:00:20;;;;;;;13.07;9.07;;;15.40;99.90;;;;;;4976795;28;20034;-77
2023/09/05 06:02:48;;;;;;;12.25;8.25;;;15.40;99.90;;;;;;4971747;28;20035;-77
2023/09/05 06:05:16;;;;;;;13.10;7.88;;;15.40;99.90;;;;;;4964031;28;20581;-77
2023/09/05 06:07:43;;;;;;;10.77;8.15;;;15.40;99.90;;;;;;4957178;28;20035;-77
2023/09/05 06:10:08;;;;;;;12.85;8.65;;;15.40;99.90;;;;;;4977488;28;20070;-77
2023/09/05 06:12:37;;;;;;;14.15;9.05;;;15.40;99.90;;;;;;4968049;28;20046;-77
2023/09/05 06:15:03;;;;;;;12.13;8.43;;;15.50;99.90;;;;;;4954641;28;20050;-77
2023/09/05 06:17:28;;;;;;;13.20;8.93;;;15.50;99.90;;;;;;4975657;28;20047;-77
2023/09/05 06:19:54;;;;;;;11.60;9.25;;;15.50;99.90;;;;;;4974283;28;20403;-77
2023/09/05 06:22:19;;;;;;;11.00;8.70;;;15.50;99.90;;;;;;4966195;28;20042;-77
2023/09/05 06:24:48;;;;;;;12.63;9.52;;;15.60;99.90;;;;;;4972137;28;20043;-77
2023/09/05 06:27:14;;;;;;;11.38;9.20;;;15.60;99.90;;;;;;4965546;28;20041;-77
2023/09/05 06:29:40;;;;;;;11.32;8.23;;;15.60;99.90;;;;;;4948402;28;20043;-77
2023/09/05 06:32:07;;;;;;;11.98;8.90;;;15.60;99.90;;;;;;4974121;28;20423;-77
2023/09/05 06:34:32;;;;;;;11.45;9.15;;;15.80;99.90;;;;;;4966980;28;20462;-76
2023/09/05 06:36:58;;;;;;;14.35;9.05;;;16.30;99.90;;;;;;4959525;28;20129;-77
2023/09/05 06:39:26;;;;;;;10.82;9.00;;;15.70;99.90;;;;;;4976066;28;20067;-77
2023/09/05 06:41:53;;;;;;;10.32;8.32;;;15.90;99.90;;;;;;4949650;28;20038;-77
2023/09/05 06:44:19;;;;;;;12.23;8.95;;;14.90;99.90;;;;;;4974718;28;20074;-77
2023/09/05 06:46:44;;;;;;;12.02;8.95;;;16.80;99.90;;;;;;4947280;28;20049;-77
2023/09/05 06:49:12;;;;;;;11.27;9.00;;;15.70;99.90;;;;;;4974204;28;20042;-77
2023/09/05 06:51:42;;;;;;;13.30;9.25;;;15.60;99.90;;;;;;4965638;28;20448;-77
2023/09/05 06:54:08;;;;;;;12.55;9.30;;;15.80;99.90;;;;;;4974449;28;20035;-77
2023/09/05 06:56:34;;;;;;;13.20;9.57;;;15.90;99.90;;;;;;4955622;28;20114;-77
2023/09/05 06:58:59;;;;;;;11.68;8.68;;;15.80;99.90;;;;;;4942114;28;20121;-77
2023/09/05 07:01:28;;;;;;;13.48;9.52;;;16.20;99.90;;;;;;4955272;28;20558;-77
2023/09/05 07:03:53;;;;;;;14.45;9.20;;;15.90;99.90;;;;;;4958769;28;20047;-77
2023/09/05 07:06:19;;;;;;;11.30;8.65;;;16.00;99.90;;;;;;4956920;28;20041;-77
2023/09/05 07:08:46;;;;;;;11.07;8.73;;;16.10;99.90;;;;;;4984418;28;20039;-77
2023/09/05 07:11:12;;;;;;;10.52;8.57;;;16.10;99.90;;;;;;4975353;28;20086;-77
2023/09/05 07:13:42;;;;;;;14.02;8.30;;;16.50;99.90;;;;;;4956841;28;20537;-77
2023/09/05 07:16:07;;;;;;;10.30;7.38;;;16.30;99.90;;;;;;4974585;28;20042;-77
2023/09/05 07:18:33;;;;;;;10.13;7.43;;;16.40;99.90;;;;;;4965047;28;20411;-77
2023/09/05 07:20:58;;;;;;;9.88;6.70;;;16.50;99.90;;;;;;4956956;28;20074;-77
2023/09/05 07:23:26;;;;;;;9.50;7.13;;;16.50;99.90;;;;;;4956729;28;20062;-77
2023/09/05 07:25:51;;;;;;;10.07;7.00;;;16.60;99.90;;;;;;4958594;28;20039;-77
2023/09/05 07:28:17;;;;;;;10.25;7.65;;;16.70;99.90;;;;;;4956101;28;20503;-77
2023/09/05 07:30:45;;;;;;;13.02;7.38;;;16.90;99.90;;;;;;4957119;28;20046;-77
2023/09/05 07:33:12;;;;;;;11.88;7.07;;;16.90;99.90;;;;;;4973503;28;20085;-77
2023/09/05 07:35:41;;;;;;;10.80;7.03;;;16.90;99.90;;;;;;4948330;28;20388;-77
2023/09/05 07:38:08;;;;;;;9.55;6.78;;;17.00;99.90;;;;;;4960611;28;20049;-77
2023/09/05 07:40:33;;;;;;;9.98;6.05;;;17.10;99.90;;;;;;4973618;28;20129;-77
2023/09/05 07:43:03;;;;;;;10.57;6.32;;;17.80;99.90;;;;;;4959146;28;20170;-77
2023/09/05 07:45:29;;;;;;;7.85;5.50;;;17.20;99.90;;;;;;4971388;28;20062;-77
2023/09/05 07:47:55;;;;;;;7.90;5.47;;;17.50;99.90;;;;;;4971094;28;20129;-77
2023/09/05 07:50:21;;;;;;;10.05;5.60;;;17.80;99.90;;;;;;4961778;28;20039;-77
2023/09/05 07:52:47;;;;;;;7.88;5.63;;;17.50;99.90;;;;;;4972558;28;20054;-77
2023/09/05 07:55:13;;;;;;;8.50;5.38;;;17.60;99.90;;;;;;4973206;28;20101;-77
2023/09/05 07:57:41;;;;;;;8.10;5.10;;;17.90;99.90;;;;;;4973638;28;20042;-77
2023/09/05 08:00:15;;;;;;;10.52;5.20;;;17.90;99.90;;;;;;4979987;28;20038;-77
2023/09/05 08:02:43;;;;;;;7.78;5.40;;;17.90;99.90;;;;;;4976849;28;20041;-77
2023/09/05 08:05:12;;;;;;;10.20;4.78;;;17.90;99.90;;;;;;4970973;28;20039;-77
2023/09/05 08:07:38;;;;;;;7.97;5.18;;;18.00;99.90;;;;;;4973363;28;20031;-77
2023/09/05 08:10:06;;;;;;;8.52;4.97;;;18.10;99.90;;;;;;4958194;28;20039;-77
2023/09/05 08:12:33;;;;;;;7.40;5.18;;;18.20;99.90;;;;;;4941042;28;20085;-77
2023/09/05 08:15:05;;;;;;;8.20;5.30;;;18.70;99.90;;;;;;4967164;28;20051;-77
2023/09/05 08:17:31;;;;;;;8.73;4.82;;;18.30;99.90;;;;;;4956221;28;20070;-76
2023/09/05 08:19:59;;;;;;;7.93;5.13;;;17.60;99.90;;;;;;4965803;28;20042;-77
2023/09/05 08:22:24;;;;;;;8.70;5.35;;;18.50;99.90;;;;;;4945879;28;20057;-77
2023/09/05 08:24:52;;;;;;;6.60;5.30;;;18.70;99.90;;;;;;4958359;28;20034;-77
2023/09/05 08:27:19;;;;;;;7.88;5.03;;;18.70;99.90;;;;;;4975069;28;20465;-77
2023/09/05 08:29:45;;;;;;;9.57;5.43;;;18.80;99.90;;;;;;5004508;23;20048;-78
2023/09/05 08:32:11;;;;;;;8.73;4.95;;;18.80;99.90;;;;;;5028324;28;20038;-79
2023/09/05 08:34:40;;;;;;;7.57;4.50;;;19.00;99.90;;;;;;5016533;28;20128;-78
2023/09/05 08:37:06;;;;;;;6.18;4.28;;;19.00;99.90;;;;;;5013890;28;20405;-78
2023/09/05 08:39:32;;;;;;;7.05;4.13;;;19.10;99.90;;;;;;5025183;28;20049;-78
2023/09/05 08:41:58;;;;;;;6.55;4.10;;;19.20;99.90;;;;;;5019074;28;20125;-78
2023/09/05 08:44:23;;;;;;;10.02;4.15;;;19.30;99.90;;;;;;5018813;28;20037;-78
2023/09/05 08:46:51;;;;;;;8.52;3.95;;;19.40;99.90;;;;;;5031342;28;20034;-78
2023/09/05 08:49:17;;;;;;;7.22;3.47;;;19.50;99.90;;;;;;5004067;28;20046;-78
2023/09/05 08:51:49;;;;;;;5.95;3.53;;;19.60;99.90;;;;;;5007823;28;20117;-79
2023/09/05 08:54:15;;;;;;;5.00;3.30;;;19.80;99.90;;;;;;5022623;28;20048;-78
2023/09/05 08:56:41;;;;;;;7.18;3.70;;;20.00;99.90;;;;;;5016811;28;20136;-78
2023/09/05 08:59:08;;;;;;;5.47;3.40;;;20.30;99.90;;;;;;5012904;28;20047;-78
2023/09/05 09:01:35;;;;;;;5.30;3.30;;;20.50;99.90;;;;;;5021390;28;20037;-78
2023/09/05 09:04:01;;;;;;;6.22;3.70;;;20.60;99.90;;;;;;5023157;28;20045;-79
2023/09/05 09:06:26;;;;;;;;;;;20.80;99.90;;;;;;5021200;28;20090;-78
2023/09/05 09:08:53;;;;;;;;;;;21.10;99.90;;;;;;5011811;28;20377;-78
2023/09/05 09:11:19;;;;;;;;;;;21.30;99.90;;;;;;5009262;28;19925;-78
2023/09/05 09:13:46;;;;;;;;;;;21.60;99.90;;;;;;5006562;28;19917;-78
2023/09/05 09:16:17;;;;;;;5.65;3.20;;;21.90;99.90;;;;;;5015286;28;19943;-79
2023/09/05 09:18:45;;;;;;;7.40;3.17;;;22.20;99.90;;;;;;5005176;28;20546;-78
2023/09/05 09:21:17;;;;;;;5.28;2.83;;;22.50;99.90;;;;;;5012903;28;20050;-78
2023/09/05 09:23:44;;;;;;;4.10;3.03;;;22.70;99.90;;;;;;5005592;28;20037;-78
2023/09/05 09:26:13;;;;;;;5.28;3.20;;;23.00;99.90;;;;;;5021380;28;20501;-78
2023/09/05 09:28:39;;;;;;;3.97;2.67;;;23.20;99.90;;;;;;5030401;28;20033;-78
2023/09/05 09:31:11;;;;;;;4.93;2.60;;;23.50;99.90;;;;;;5011594;28;20046;-78
2023/09/05 09:33:36;;;;;;;;;;;23.80;99.90;;;;;;5024619;28;20048;-78
2023/09/05 09:36:08;;;;;;;;;;;24.00;99.90;;;;;;5030988;28;19917;-78
2023/09/05 09:38:34;;;;;;;3.42;2.45;;;24.30;99.90;;;;;;5015436;28;19925;-78
2023/09/05 09:41:02;;;;;;;5.80;2.20;;;24.60;99.90;;;;;;5013490;28;20050;-78
2023/09/05 09:43:29;;;;;;;3.47;2.47;;;24.60;99.90;;;;;;5030296;28;20042;-78
2023/09/05 09:45:59;;;;;;;3.22;2.13;;;24.90;99.90;;;;;;5002985;28;20448;-78
2023/09/05 09:48:27;;;;;;;5.28;2.53;;;25.10;99.90;;;;;;5003510;28;20045;-81
2023/09/05 09:50:55;;;;;;;2.63;2.10;;;25.30;99.90;;;;;;5014088;28;20046;-78
2023/09/05 09:53:30;;;;;;;3.05;2.25;;;25.50;99.90;;;;;;5003882;28;20096;-78
2023/09/05 09:55:57;;;;;;;5.15;2.20;;;25.70;99.90;;;;;;5015267;28;20069;-78
2023/09/05 09:58:24;;;;;;;;;;;25.80;99.90;;;;;;5020962;28;20090;-78
2023/09/05 10:00:51;;;;;;;4.40;2.13;;;25.80;99.90;;;;;;5016607;28;19982;-78
2023/09/05 10:03:16;;;;;;;5.15;2.58;;;26.00;99.90;;;;;;5034125;28;20045;-78
2023/09/05 10:05:45;;;;;;;2.35;2.00;;;26.20;99.90;;;;;;5024087;28;20397;-78
2023/09/05 10:08:12;;;;;;;4.28;2.30;;;26.30;99.90;;;;;;5020629;28;20045;-78
2023/09/05 10:10:41;;;;;;;4.25;2.10;;;26.50;99.90;;;;;;5015779;28;20119;-78
2023/09/05 10:13:11;;;;;;;4.53;2.20;;;26.60;99.90;;;;;;5015980;28;20477;-78
2023/09/05 10:15:38;;;;;;;5.72;2.22;;;26.80;99.90;;;;;;5015273;28;20037;-78
2023/09/05 10:18:10;;;;;;;2.33;2.00;;;26.90;99.90;;;;;;5001947;28;20116;-78
2023/09/05 10:20:39;;;;;;;3.08;2.15;;;27.00;99.90;;;;;;5010053;28;20049;-78
2023/09/05 10:23:08;;;;;;;4.28;2.00;;;27.20;99.90;;;;;;5015939;28;20053;-79
2023/09/05 10:25:36;;;;;;;2.65;1.90;;;27.30;99.90;;;;;;5026206;28;20041;-78
2023/09/05 10:28:01;;;;;;;3.70;2.13;;;27.50;99.90;;;;;;5022226;28;20076;-79
2023/09/05 10:30:28;;;;;;;4.93;2.22;;;27.60;99.90;;;;;;5019353;28;20065;-78
2023/09/05 10:32:53;;;;;;;2.65;2.10;;;27.60;99.90;;;;;;5015547;28;20159;-78
2023/09/05 10:35:20;;;;;;;5.55;2.17;;;27.70;99.30;;;;;;5021104;28;20136;-79
2023/09/05 10:37:48;;;;;;;3.22;2.08;;;27.70;99.10;;;;;;5033650;28;20037;-79
2023/09/05 10:40:14;;;;;;;3.63;2.03;;;27.80;99.00;;;;;;5023452;28;20478;-78
2023/09/05 10:42:55;;;;;;;3.47;2.05;;;27.90;98.60;;;;;;5016395;28;20044;-79
2023/09/05 10:45:23;;;;;;;3.55;2.10;;;28.00;98.00;;;;;;5015166;28;20041;-79
2023/09/05 10:47:50;;;;;;;5.90;2.00;;;28.10;98.40;;;;;;5024678;28;20060;-79
2023/09/05 10:50:23;;;;;;;2.50;2.00;;;28.30;98.40;;;;;;5026341;28;20076;-79
2023/09/05 10:53:11;;;;;;;2.13;1.92;;;28.50;97.80;;;;;;5014242;28;20052;-79
2023/09/05 10:55:50;;;;;;;3.15;1.90;;;28.50;96.60;;;;;;5013210;28;20037;-79
2023/09/05 10:58:37;;;;;;;3.95;1.80;;;28.70;96.70;;;;;;5014752;28;20048;-79
2023/09/05 11:01:29;;;;;;;4.35;2.03;;;28.60;95.10;;;;;;5027053;28;20033;-79
2023/09/05 11:04:03;;;;;;;3.33;1.90;;;28.60;95.50;;;;;;5020703;28;20045;-78
2023/09/05 11:06:32;;;;;;;3.28;1.85;;;28.40;94.90;;;;;;5032429;28;20108;-78
2023/09/05 11:09:05;;;;;;;3.25;1.98;;;28.40;95.10;;;;;;5020469;28;20041;-78
2023/09/05 11:11:32;;;;;;;3.58;2.00;;;28.50;95.10;;;;;;5018908;28;20088;-78
2023/09/05 11:13:57;;;;;;;4.90;1.80;;;28.50;94.60;;;;;;5020145;28;20085;-78
2023/09/05 11:16:27;;;;;;;3.17;2.00;;;28.50;94.50;;;;;;5006770;28;20040;-78
2023/09/05 11:18:56;;;;;;;3.35;1.83;;;28.60;94.70;;;;;;5026654;28;20111;-78
2023/09/05 11:21:23;;;;;;;2.65;1.90;;;28.70;95.20;;;;;;5017923;28;20103;-78
2023/09/05 11:23:58;;;;;;;2.95;2.10;;;28.80;94.50;;;;;;5026743;28;20038;-79
2023/09/05 11:26:24;;;;;;;3.08;1.88;;;28.80;94.00;;;;;;5018085;28;20072;-79
2023/09/05 11:28:51;;;;;;;4.18;1.80;;;28.80;93.10;;;;;;5004742;28;20064;-79
2023/09/05 11:31:18;;;;;;;2.83;1.90;;;28.90;93.40;;;;;;5022460;28;20521;-78
2023/09/05 11:33:47;;;;;;;4.18;2.20;;;29.00;93.40;;;;;;5029869;28;20370;-79
2023/09/05 11:36:13;;;;;;;2.42;1.80;;;29.00;93.30;;;;;;5021451;28;20056;-78
2023/09/05 11:38:49;;;;;;;6.13;1.63;;;29.10;93.30;;;;;;5021765;28;20049;-78
2023/09/05 11:41:16;;;;;;;3.53;1.67;;;29.10;92.50;;;;;;5018565;28;20047;-78
2023/09/05 11:43:52;;;;;;;3.15;1.73;;;29.10;92.70;;;;;;5031663;28;20055;-79
2023/09/05 11:46:20;;;;;;;4.95;1.75;;;29.30;92.90;;;;;;5022243;28;20091;-79
2023/09/05 11:48:48;;;;;;;2.53;1.90;;;29.30;92.40;;;;;;5022461;28;20446;-79
2023/09/05 11:51:14;;;;;;;3.92;1.92;;;29.40;91.90;;;;;;5014005;28;20087;-80
2023/09/05 11:53:41;;;;;;;2.47;2.25;;;29.40;91.40;;;;;;5018250;28;20081;-79
2023/09/05 11:56:07;;;;;;;2.53;1.92;;;29.30;91.80;;;;;;5022175;28;20084;-78
2023/09/05 11:58:33;;;;;;;3.42;1.88;;;29.30;92.10;;;;;;5031106;28;20081;-78
2023/09/05 12:00:59;;;;;;;3.30;1.90;;;29.30;92.40;;;;;;5026808;28;20052;-78
2023/09/05 12:03:24;;;;;;;2.55;1.90;;;29.40;92.10;;;;;;5000330;28;20401;-78
2023/09/05 12:05:51;;;;;;;5.55;2.20;;;29.60;92.20;;;;;;5021132;28;20033;-79
2023/09/05 12:08:21;;;;;;;4.95;1.90;;;29.60;91.60;;;;;;5025309;28;20164;-78
2023/09/05 12:10:51;;;;;;;4.15;1.90;;;29.60;91.10;;;;;;5014439;28;20087;-79
2023/09/05 12:13:34;;;;;;;3.63;1.80;;;29.70;91.90;;;;;;5031512;28;20546;-78
2023/09/05 12:15:59;;;;;;;3.08;1.90;;;29.80;92.30;;;;;;5021466;28;20128;-78
2023/09/05 12:18:25;;;;;;;2.47;1.90;;;29.80;92.50;;;;;;5008770;28;20167;-78
2023/09/05 12:21:00;;;;;;;2.67;2.25;;;29.90;92.80;;;;;;5022808;28;20481;-78
2023/09/05 12:23:29;;;;;;;5.38;2.00;;;30.00;92.50;;;;;;5030137;28;20034;-78
2023/09/05 12:25:55;;;;;;;3.45;1.73;;;30.10;92.90;;;;;;5031481;28;20040;-79
2023/09/05 12:28:22;;;;;;;3.08;1.80;;;30.20;93.20;;;;;;5030605;28;20045;-78
2023/09/05 12:30:53;;;;;;;3.97;2.00;;;30.30;92.90;;;;;;5013888;28;20438;-78
2023/09/05 12:33:19;;;;;;;3.28;2.22;;;30.30;91.80;;;;;;4997628;28;20038;-78
2023/09/05 12:35:46;;;;;;;2.20;1.70;;;30.30;91.90;;;;;;5013208;28;20497;-78
2023/09/05 12:38:11;;;;;;;2.83;2.10;;;30.20;91.60;;;;;;5021455;28;20049;-78
2023/09/05 12:40:37;;;;;;;2.55;2.03;;;30.30;92.30;;;;;;5005095;28;20400;-78
2023/09/05 12:43:04;;;;;;;3.03;1.80;;;30.30;92.50;;;;;;5016813;28;20458;-79
2023/09/05 12:45:33;;;;;;;3.28;1.75;;;30.30;92.20;;;;;;5019379;28;20045;-78
2023/09/05 12:47:59;;;;;;;5.28;1.70;;;30.30;91.80;;;;;;5021845;28;20043;-80
2023/09/05 12:50:30;;;;;;;4.63;1.80;;;30.30;91.70;;;;;;5020949;28;20037;-79